Tor Futura — OZZE2 — position and weather

sailwx.info

Track history (hours):
 
Tides and Currents Weather Stations Pressure Air Temp Water Temp Dewpoint Dewpoint Depression Visibility Wind Speed Wind Dir Waves Ship Positions

Tor Futura

Last reported at 2016-Jun-30 13:30 UTC. Time now 2016-Jul-01 00:56 UTC.
Position N 36°48' E 010°23'.

Length 183.1 m; beam 25.2 m; draft 7.8 m.

Type: Ship. MMSI: 219927000.

Date/timePositionNaut miles runAvg speedWind from/ knotsBaromVisibWave heightAir tempDewpointWater temp
2016-Jun-30 13:30N 36°48' E 010°23'1515.6
2016-Jun-30 12:33N 37°03' E 010°24'1816.7
2016-Jun-30 11:27N 37°21' E 010°21'1516.5
2016-Jun-30 10:33N 37°34' E 010°12'1817.9
2016-Jun-30 09:33N 37°41' E 009°51'1818.6
2016-Jun-30 08:33N 37°54' E 009°34'1818.4
2016-Jun-30 07:33N 38°07' E 009°18'  
2016-Jun-26 14:28N 39°36' E 007°49'6917.6
2016-Jun-26 10:33N 38°39' E 008°40'1818.3
2016-Jun-26 09:33N 38°28' E 008°59'1918.7
2016-Jun-26 08:33N 38°17' E 009°18'1919.1
2016-Jun-26 07:33N 38°05' E 009°37'1918.9
2016-Jun-26 06:32N 37°53' E 009°56'1918.7
2016-Jun-26 05:33N 37°42' E 010°14'2219.1
2016-Jun-26 04:23N 37°20' E 010°22'63 3.0
2016-Jun-25 07:27N 38°03' E 009°23'1819.5
2016-Jun-25 06:32N 38°15' E 009°07'2019.5
2016-Jun-25 05:31N 38°30' E 008°49'10219.2
2016-Jun-25 00:12N 39°55' E 007°36'1719.4
2016-Jun-24 23:21N 40°09' E 007°26'3919.7
2016-Jun-24 21:22N 40°43' E 007°00'1619.6
2016-Jun-24 20:34N 40°57' E 006°50'2419.4
2016-Jun-24 19:18N 41°18' E 006°34'2019.3
2016-Jun-24 18:16N 41°36' E 006°21'1819.5
2016-Jun-24 17:21N 41°51' E 006°10'9519.2
2016-Jun-24 12:24N 43°15' E 005°10'9 2.8
2016-Jun-24 09:12N 43°19' E 005°22'0 0.0
2016-Jun-23 20:18N 43°19' E 005°22'0 0.0
2016-Jun-23 17:18N 43°19' E 005°22'0 0.0
2016-Jun-23 11:21N 43°19' E 005°22'0 0.0
2016-Jun-23 10:33N 43°19' E 005°22'1 0.4
2016-Jun-23 07:11N 43°20' E 005°21'1710.7
2016-Jun-23 05:33N 43°03' E 005°18'1616.0
2016-Jun-23 04:33N 42°49' E 005°28'7216.7
2016-Jun-23 00:15N 41°46' E 006°16'3416.9
2016-Jun-22 22:15N 41°17' E 006°39'1116.2
2016-Jun-22 21:33N 41°06' E 006°44'1717.1
2016-Jun-22 20:32N 40°51' E 006°55'15216.7
2016-Jun-22 11:24N 38°41' E 008°37'1314.5
2016-Jun-22 10:33N 38°33' E 008°50'  
Track history (hours):
 
Tides and Currents Weather Stations Pressure Air Temp Water Temp Dewpoint Dewpoint Depression Visibility Wind Speed Wind Dir Waves Ship Positions

Tor Futura

Last reported at 2016-Jun-30 13:30 UTC. Time now 2016-Jul-01 00:56 UTC.
Position N 36°48' E 010°23'.

Length 183.1 m; beam 25.2 m; draft 7.8 m.

Type: Ship. MMSI: 219927000.

Date/timePositionNaut miles runAvg speedWind from/ knotsBaromVisibWave heightAir tempDewpointWater temp
2016-Jun-30 13:30N 36°48' E 010°23'1515.6
2016-Jun-30 12:33N 37°03' E 010°24'1816.7
2016-Jun-30 11:27N 37°21' E 010°21'1516.5
2016-Jun-30 10:33N 37°34' E 010°12'1817.9
2016-Jun-30 09:33N 37°41' E 009°51'1818.6
2016-Jun-30 08:33N 37°54' E 009°34'1818.4
2016-Jun-30 07:33N 38°07' E 009°18'  
2016-Jun-26 14:28N 39°36' E 007°49'6917.6
2016-Jun-26 10:33N 38°39' E 008°40'1818.3
2016-Jun-26 09:33N 38°28' E 008°59'1918.7
2016-Jun-26 08:33N 38°17' E 009°18'1919.1
2016-Jun-26 07:33N 38°05' E 009°37'1918.9
2016-Jun-26 06:32N 37°53' E 009°56'1918.7
2016-Jun-26 05:33N 37°42' E 010°14'2219.1
2016-Jun-26 04:23N 37°20' E 010°22'63 3.0
2016-Jun-25 07:27N 38°03' E 009°23'1819.5
2016-Jun-25 06:32N 38°15' E 009°07'2019.5
2016-Jun-25 05:31N 38°30' E 008°49'10219.2
2016-Jun-25 00:12N 39°55' E 007°36'1719.4
2016-Jun-24 23:21N 40°09' E 007°26'3919.7
2016-Jun-24 21:22N 40°43' E 007°00'1619.6
2016-Jun-24 20:34N 40°57' E 006°50'2419.4
2016-Jun-24 19:18N 41°18' E 006°34'2019.3
2016-Jun-24 18:16N 41°36' E 006°21'1819.5
2016-Jun-24 17:21N 41°51' E 006°10'9519.2
2016-Jun-24 12:24N 43°15' E 005°10'9 2.8
2016-Jun-24 09:12N 43°19' E 005°22'0 0.0
2016-Jun-23 20:18N 43°19' E 005°22'0 0.0
2016-Jun-23 17:18N 43°19' E 005°22'0 0.0
2016-Jun-23 11:21N 43°19' E 005°22'0 0.0
2016-Jun-23 10:33N 43°19' E 005°22'1 0.4
2016-Jun-23 07:11N 43°20' E 005°21'1710.7
2016-Jun-23 05:33N 43°03' E 005°18'1616.0
2016-Jun-23 04:33N 42°49' E 005°28'7216.7
2016-Jun-23 00:15N 41°46' E 006°16'3416.9
2016-Jun-22 22:15N 41°17' E 006°39'1116.2
2016-Jun-22 21:33N 41°06' E 006°44'1717.1
2016-Jun-22 20:32N 40°51' E 006°55'15216.7
2016-Jun-22 11:24N 38°41' E 008°37'1314.5
2016-Jun-22 10:33N 38°33' E 008°50'  

Dump ship's entire track history